createdAt,value
2018-12-20T00:00:44.071Z,69.51
2018-12-20T00:03:17.843Z,69.57
2018-12-20T00:05:51.824Z,69.36
2018-12-20T00:08:25.630Z,69.30
2018-12-20T00:10:59.399Z,69.36
2018-12-20T00:13:33.430Z,69.35
2018-12-20T00:16:07.555Z,68.82
2018-12-20T00:18:41.361Z,68.54
2018-12-20T00:21:15.320Z,68.54
2018-12-20T00:23:49.167Z,68.55
2018-12-20T00:26:22.936Z,68.35
2018-12-20T00:28:56.988Z,68.24
2018-12-20T00:31:31.011Z,68.38
2018-12-20T00:34:04.967Z,68.36
2018-12-20T00:36:38.949Z,68.62
2018-12-20T00:39:13.129Z,68.87
2018-12-20T00:41:47.086Z,69.33
2018-12-20T00:44:20.998Z,69.71
2018-12-20T00:46:55.166Z,69.37
2018-12-20T00:49:29.387Z,69.36
2018-12-20T00:52:03.334Z,68.87
2018-12-20T00:54:37.525Z,68.53
2018-12-20T00:57:11.813Z,68.27
2018-12-20T00:59:45.763Z,68.84
2018-12-20T01:02:20.037Z,69.17
2018-12-20T01:04:54.045Z,69.12
2018-12-20T01:07:28.092Z,68.71
2018-12-20T01:10:02.210Z,68.31
2018-12-20T01:12:35.886Z,67.98
2018-12-20T01:15:09.790Z,67.97
2018-12-20T01:17:43.771Z,68.21
2018-12-20T01:20:17.757Z,67.81
2018-12-20T01:22:52.494Z,68.04
2018-12-20T01:25:26.695Z,67.86
2018-12-20T01:28:00.999Z,67.66
2018-12-20T01:30:35.107Z,67.83
2018-12-20T01:33:09.156Z,67.63
2018-12-20T01:35:44.043Z,67.59
2018-12-20T01:38:18.022Z,67.55
2018-12-20T01:40:52.181Z,67.84
2018-12-20T01:43:26.241Z,67.65
2018-12-20T01:46:00.085Z,67.53
2018-12-20T01:48:34.439Z,67.76
2018-12-20T01:51:08.857Z,67.41
2018-12-20T01:53:42.995Z,67.38
2018-12-20T01:56:16.940Z,68.83
2018-12-20T01:58:50.981Z,68.55
2018-12-20T02:01:24.942Z,68.28
2018-12-20T02:03:58.802Z,68.02
2018-12-20T02:06:33.204Z,67.68
2018-12-20T02:09:08.233Z,67.61
2018-12-20T02:11:42.083Z,68.96
2018-12-20T02:14:16.022Z,68.77
2018-12-20T02:16:50.309Z,69.27
2018-12-20T02:19:24.420Z,68.99
2018-12-20T02:21:58.233Z,68.84
2018-12-20T02:24:32.082Z,68.60
2018-12-20T02:27:06.196Z,68.30
2018-12-20T02:29:40.535Z,68.33
2018-12-20T02:32:14.470Z,67.83
2018-12-20T02:34:48.282Z,68.22
2018-12-20T02:37:22.331Z,68.13
2018-12-20T02:39:56.566Z,67.85
2018-12-20T02:42:30.925Z,67.77
2018-12-20T02:45:10.775Z,67.79
2018-12-20T02:47:42.081Z,67.58
2018-12-20T02:50:16.011Z,67.45
2018-12-20T02:52:50.158Z,67.49
2018-12-20T02:55:24.022Z,67.35
2018-12-20T02:57:58.170Z,67.26
2018-12-20T03:00:32.070Z,67.61
2018-12-20T03:03:06.065Z,67.34
2018-12-20T03:05:39.869Z,67.42
2018-12-20T03:08:13.571Z,67.25
2018-12-20T03:10:47.381Z,67.29
2018-12-20T03:13:21.628Z,67.45
2018-12-20T03:15:55.857Z,67.46
2018-12-20T03:18:30.054Z,67.12
2018-12-20T03:21:04.180Z,67.29
2018-12-20T03:23:38.345Z,67.52
2018-12-20T03:26:12.605Z,67.16
2018-12-20T03:28:46.819Z,67.25
2018-12-20T03:31:20.888Z,67.19
2018-12-20T03:33:54.497Z,67.45
2018-12-20T03:36:28.599Z,67.57
2018-12-20T03:39:02.404Z,67.59
2018-12-20T03:41:36.312Z,67.85
2018-12-20T03:44:10.423Z,67.85
2018-12-20T03:46:44.471Z,67.91
2018-12-20T03:49:18.710Z,67.83
2018-12-20T03:51:52.892Z,67.59
2018-12-20T03:54:27.158Z,67.56
2018-12-20T03:57:01.289Z,67.79
2018-12-20T03:59:35.140Z,67.53
2018-12-20T04:02:09.537Z,67.43
2018-12-20T04:04:43.416Z,67.66
2018-12-20T04:07:17.667Z,67.61
2018-12-20T04:09:51.948Z,67.41
2018-12-20T04:12:25.966Z,66.97
2018-12-20T04:15:00.222Z,68.24
2018-12-20T04:17:34.390Z,69.33
2018-12-20T04:20:08.261Z,71.54
2018-12-20T04:22:42.368Z,72.06
2018-12-20T04:25:16.371Z,70.53
2018-12-20T04:27:50.515Z,69.78
2018-12-20T04:30:24.814Z,69.20
2018-12-20T04:32:58.981Z,68.89
2018-12-20T04:35:33.393Z,68.43
2018-12-20T04:38:07.978Z,68.25
2018-12-20T04:40:41.919Z,68.40
2018-12-20T04:43:15.732Z,68.45
2018-12-20T04:45:49.872Z,68.01
2018-12-20T04:48:25.202Z,68.06
2018-12-20T04:50:59.435Z,67.98
2018-12-20T04:53:33.830Z,68.27
2018-12-20T04:56:08.206Z,68.36
2018-12-20T04:58:42.231Z,68.23
2018-12-20T05:01:16.044Z,67.81
2018-12-20T05:03:49.943Z,68.04
2018-12-20T05:06:23.651Z,68.52
2018-12-20T05:08:57.984Z,68.52
2018-12-20T05:11:32.042Z,68.65
2018-12-20T05:14:06.095Z,68.87
2018-12-20T05:16:40.036Z,68.48
2018-12-20T05:19:14.239Z,68.49
2018-12-20T05:21:48.420Z,68.50
2018-12-20T05:24:22.837Z,68.67
2018-12-20T05:26:56.900Z,68.56
2018-12-20T05:29:31.119Z,68.28
2018-12-20T05:32:05.277Z,68.31
2018-12-20T05:34:39.185Z,68.60
2018-12-20T05:37:13.326Z,68.58
2018-12-20T05:39:47.762Z,68.49
2018-12-20T05:42:23.109Z,68.97
2018-12-20T05:44:57.257Z,69.72
2018-12-20T05:47:31.516Z,69.65
2018-12-20T05:50:07.161Z,69.62
2018-12-20T05:52:41.244Z,69.10
2018-12-20T05:55:15.019Z,68.56
2018-12-20T05:57:49.161Z,68.18
2018-12-20T06:00:23.049Z,67.97
2018-12-20T06:02:57.080Z,68.12
2018-12-20T06:05:31.055Z,69.93
2018-12-20T06:08:05.314Z,69.42
2018-12-20T06:10:39.747Z,68.69
2018-12-20T06:13:13.749Z,68.38
2018-12-20T06:15:47.783Z,68.13
2018-12-20T06:18:21.897Z,67.99
2018-12-20T06:20:55.736Z,67.75
2018-12-20T06:23:29.564Z,67.95
2018-12-20T06:26:03.370Z,69.07
2018-12-20T06:28:37.276Z,68.51
2018-12-20T06:31:11.188Z,68.35
2018-12-20T06:33:45.194Z,68.06
2018-12-20T06:36:19.306Z,67.93
2018-12-20T06:38:53.058Z,67.69
2018-12-20T06:41:27.329Z,67.80
2018-12-20T06:44:07.152Z,67.92
2018-12-20T06:46:39.238Z,68.02
2018-12-20T06:49:12.875Z,67.92
2018-12-20T06:51:46.850Z,67.55
2018-12-20T06:54:20.861Z,66.97
2018-12-20T06:56:54.863Z,66.80
2018-12-20T06:59:28.649Z,68.49
2018-12-20T07:02:02.679Z,69.90
2018-12-20T07:04:36.358Z,70.28
2018-12-20T07:07:11.065Z,71.39
2018-12-20T07:09:45.017Z,70.33
2018-12-20T07:12:18.832Z,69.37
2018-12-20T07:14:52.727Z,68.93
2018-12-20T07:17:26.803Z,68.94
2018-12-20T07:20:00.748Z,68.71
2018-12-20T07:22:34.862Z,68.50
2018-12-20T07:25:08.771Z,68.91
2018-12-20T07:27:42.877Z,69.70
2018-12-20T07:30:16.729Z,69.34
2018-12-20T07:32:50.794Z,68.71
2018-12-20T07:35:24.599Z,68.42
2018-12-20T07:37:58.506Z,68.24
2018-12-20T07:40:32.312Z,67.98
2018-12-20T07:43:06.320Z,67.92
2018-12-20T07:45:40.323Z,67.84
2018-12-20T07:48:14.443Z,68.04
2018-12-20T07:50:48.248Z,68.11
2018-12-20T07:53:22.156Z,68.10
2018-12-20T07:55:56.061Z,68.32
2018-12-20T07:58:30.276Z,68.64
2018-12-20T08:01:04.285Z,68.47
2018-12-20T08:03:37.997Z,68.53
2018-12-20T08:06:12.100Z,68.23
2018-12-20T08:08:46.113Z,68.47
2018-12-20T08:11:20.221Z,68.49
2018-12-20T08:13:53.926Z,68.22
2018-12-20T08:16:28.035Z,68.53
2018-12-20T08:19:01.841Z,69.55
2018-12-20T08:21:35.651Z,69.87
2018-12-20T08:24:09.450Z,69.94
2018-12-20T08:26:43.460Z,70.51
2018-12-20T08:29:17.164Z,70.17
2018-12-20T08:31:51.171Z,70.67
2018-12-20T08:34:25.088Z,70.12
2018-12-20T08:36:58.849Z,69.70
2018-12-20T08:39:32.931Z,71.11
2018-12-20T08:42:07.006Z,71.48
2018-12-20T08:44:40.811Z,71.32
2018-12-20T08:47:14.457Z,71.29
2018-12-20T08:49:48.522Z,70.20
2018-12-20T08:52:22.284Z,70.22
2018-12-20T08:54:56.235Z,70.07
2018-12-20T08:57:30.040Z,70.41
2018-12-20T09:00:05.634Z,70.71
2018-12-20T09:02:39.594Z,69.56
2018-12-20T09:05:13.399Z,68.79
2018-12-20T09:07:47.512Z,68.96
2018-12-20T09:10:21.624Z,68.95
2018-12-20T09:12:55.838Z,69.20
2018-12-20T09:15:29.745Z,68.54
2018-12-20T09:18:03.550Z,67.81
2018-12-20T09:20:37.432Z,67.98
2018-12-20T09:23:11.448Z,68.83
2018-12-20T09:25:45.523Z,69.67
2018-12-20T09:28:19.390Z,69.42
2018-12-20T09:30:53.495Z,69.30
2018-12-20T09:33:27.404Z,70.59
2018-12-20T09:36:01.514Z,69.47
2018-12-20T09:38:35.423Z,69.67
2018-12-20T09:41:09.227Z,69.01
2018-12-20T09:43:43.019Z,68.07
2018-12-20T09:46:17.143Z,67.63
2018-12-20T09:48:51.257Z,68.11
2018-12-20T09:51:25.060Z,68.74
2018-12-20T09:53:58.969Z,68.62
2018-12-20T09:56:32.772Z,67.97
2018-12-20T09:59:06.736Z,68.73
2018-12-20T10:01:40.894Z,69.78
2018-12-20T10:04:14.596Z,69.91
2018-12-20T10:06:48.607Z,69.53
2018-12-20T10:09:22.398Z,69.35
2018-12-20T10:11:56.524Z,68.11
2018-12-20T10:14:30.327Z,68.38
2018-12-20T10:17:04.237Z,67.92
2018-12-20T10:19:38.246Z,67.03
2018-12-20T10:22:12.154Z,66.42
2018-12-20T10:24:46.238Z,65.81
2018-12-20T10:27:20.273Z,66.29
2018-12-20T10:29:54.181Z,67.94
2018-12-20T10:32:27.985Z,67.52
2018-12-20T10:35:01.897Z,69.05
2018-12-20T10:37:35.903Z,68.64
2018-12-20T10:40:09.579Z,68.72
2018-12-20T10:42:43.716Z,68.69
2018-12-20T10:45:17.588Z,69.71
2018-12-20T10:47:51.634Z,70.13
2018-12-20T10:50:25.643Z,69.92
2018-12-20T10:52:59.455Z,70.73
2018-12-20T10:55:33.561Z,69.94
2018-12-20T10:58:07.262Z,69.17
2018-12-20T11:00:47.006Z,68.50
2018-12-20T11:03:26.552Z,67.32
2018-12-20T11:06:09.464Z,66.94
2018-12-20T11:08:45.317Z,67.41
2018-12-20T11:11:20.658Z,66.95
2018-12-20T11:13:54.464Z,66.58
2018-12-20T11:16:28.317Z,65.97
2018-12-20T11:19:02.333Z,66.53
2018-12-20T11:21:36.392Z,68.60
2018-12-20T11:24:10.296Z,69.70
2018-12-20T11:26:44.511Z,68.92
2018-12-20T11:29:18.725Z,69.48
2018-12-20T11:31:53.348Z,69.23
2018-12-20T11:34:27.362Z,68.02
2018-12-20T11:37:01.030Z,67.77
2018-12-20T11:39:35.685Z,68.70
2018-12-20T11:42:09.698Z,68.51
2018-12-20T11:44:43.463Z,69.30
2018-12-20T11:47:23.148Z,68.62
2018-12-20T11:49:57.048Z,67.43
2018-12-20T11:52:30.665Z,66.66
2018-12-20T11:55:04.867Z,66.22
2018-12-20T11:57:38.773Z,65.56
2018-12-20T12:00:12.481Z,66.43
2018-12-20T12:02:46.491Z,66.85
2018-12-20T12:05:20.630Z,66.62
2018-12-20T12:07:54.472Z,66.37
2018-12-20T12:10:28.616Z,65.86
2018-12-20T12:13:02.315Z,66.27
2018-12-20T12:15:36.429Z,67.94
2018-12-20T12:18:10.542Z,67.79
2018-12-20T12:20:44.657Z,68.25
2018-12-20T12:23:18.969Z,67.63
2018-12-20T12:25:52.816Z,67.85
2018-12-20T12:28:26.645Z,67.63
2018-12-20T12:31:00.692Z,68.01
2018-12-20T12:33:34.752Z,68.06
2018-12-20T12:36:08.712Z,69.23
2018-12-20T12:38:42.825Z,69.17
2018-12-20T12:41:16.734Z,69.50
2018-12-20T12:43:51.047Z,69.60
2018-12-20T12:46:25.330Z,69.79
2018-12-20T12:48:59.245Z,70.19
2018-12-20T12:51:33.177Z,69.51
2018-12-20T12:54:07.054Z,70.56
2018-12-20T12:56:41.017Z,72.22
2018-12-20T12:59:14.900Z,71.45
2018-12-20T13:01:48.910Z,70.76
2018-12-20T13:04:23.022Z,70.27
2018-12-20T13:06:57.447Z,70.32
2018-12-20T13:09:31.104Z,70.40
2018-12-20T13:12:05.083Z,70.44
2018-12-20T13:14:40.290Z,69.36
2018-12-20T13:17:14.094Z,70.06
2018-12-20T13:19:48.011Z,69.92
2018-12-20T13:22:21.867Z,70.33
2018-12-20T13:24:56.021Z,69.83
2018-12-20T13:27:29.825Z,69.14
2018-12-20T13:30:05.341Z,69.12
2018-12-20T13:32:39.176Z,69.27
2018-12-20T13:35:13.083Z,69.80
2018-12-20T13:37:46.933Z,70.85
2018-12-20T13:40:20.999Z,70.34
2018-12-20T13:42:54.706Z,69.60
2018-12-20T13:45:28.814Z,68.93
2018-12-20T13:48:02.722Z,69.63
2018-12-20T13:50:36.730Z,69.75
2018-12-20T13:53:10.413Z,69.73
2018-12-20T13:55:44.443Z,69.71
2018-12-20T13:58:18.248Z,68.84
2018-12-20T14:00:52.052Z,69.39
2018-12-20T14:03:26.611Z,68.95
2018-12-20T14:06:00.687Z,68.93
2018-12-20T14:08:34.699Z,69.59
2018-12-20T14:11:08.810Z,69.50
2018-12-20T14:13:42.512Z,69.26
2018-12-20T14:16:16.622Z,69.95
2018-12-20T14:18:50.406Z,69.17
2018-12-20T14:21:24.540Z,68.98
2018-12-20T14:23:58.336Z,69.31
2018-12-20T14:26:32.356Z,69.46
2018-12-20T14:29:06.569Z,69.51
2018-12-20T14:31:40.579Z,70.35
2018-12-20T14:34:14.384Z,70.77
2018-12-20T14:36:48.090Z,70.07
2018-12-20T14:39:22.170Z,70.26
2018-12-20T14:41:56.212Z,70.50
2018-12-20T14:44:30.116Z,69.74
2018-12-20T14:47:04.122Z,70.81
2018-12-20T14:49:38.339Z,70.50
2018-12-20T14:52:12.348Z,70.16
2018-12-20T14:54:46.361Z,69.29
2018-12-20T14:57:20.573Z,71.04
2018-12-20T14:59:54.483Z,71.40
2018-12-20T15:02:28.285Z,70.69
2018-12-20T15:05:02.192Z,70.26
2018-12-20T15:07:35.997Z,69.90
2018-12-20T15:10:10.313Z,69.33
2018-12-20T15:12:44.228Z,69.79
2018-12-20T15:15:18.335Z,70.62
2018-12-20T15:17:52.039Z,70.12
2018-12-20T15:20:25.943Z,68.88
2018-12-20T15:23:00.043Z,69.10
2018-12-20T15:25:34.167Z,69.44
2018-12-20T15:28:08.044Z,69.89
2018-12-20T15:30:42.084Z,70.21
2018-12-20T15:33:16.094Z,71.52
2018-12-20T15:35:50.104Z,71.30
2018-12-20T15:38:23.709Z,70.84
2018-12-20T15:40:57.612Z,70.61
2018-12-20T15:43:32.646Z,69.91
2018-12-20T15:46:06.449Z,70.79
2018-12-20T15:48:40.358Z,70.50
2018-12-20T15:51:14.021Z,71.27
2018-12-20T15:53:47.866Z,72.34
2018-12-20T15:56:21.771Z,71.36
2018-12-20T15:58:55.524Z,70.66
2018-12-20T16:01:29.486Z,70.91
2018-12-20T16:04:03.358Z,70.40
2018-12-20T16:06:37.502Z,70.17
2018-12-20T16:09:11.412Z,70.85
2018-12-20T16:11:45.541Z,69.94
2018-12-20T16:14:19.633Z,69.31
2018-12-20T16:16:53.853Z,69.71
2018-12-20T16:19:27.663Z,69.43
2018-12-20T16:22:01.560Z,68.92
2018-12-20T16:24:35.366Z,69.53
2018-12-20T16:27:09.272Z,69.82
2018-12-20T16:29:43.758Z,69.36
2018-12-20T16:32:17.913Z,69.47
2018-12-20T16:34:51.664Z,69.88
2018-12-20T16:37:25.749Z,70.17
2018-12-20T16:39:59.918Z,71.03
2018-12-20T16:42:34.048Z,69.67
2018-12-20T16:45:08.125Z,69.04
2018-12-20T16:47:42.115Z,69.96
2018-12-20T16:50:16.232Z,69.13
2018-12-20T16:52:50.394Z,69.25
2018-12-20T16:55:24.310Z,70.24
2018-12-20T16:57:58.245Z,69.30
2018-12-20T17:00:32.424Z,69.01
2018-12-20T17:03:06.636Z,69.08
2018-12-20T17:05:40.850Z,68.87
2018-12-20T17:08:14.965Z,68.33
2018-12-20T17:10:49.126Z,68.49
2018-12-20T17:13:23.090Z,68.54
2018-12-20T17:15:56.891Z,70.54
2018-12-20T17:18:30.749Z,69.77
2018-12-20T17:21:05.015Z,70.96
2018-12-20T17:23:38.804Z,69.70
2018-12-20T17:26:12.928Z,69.68
2018-12-20T17:28:46.561Z,69.64
2018-12-20T17:31:22.178Z,68.68
2018-12-20T17:33:56.188Z,68.30
2018-12-20T17:36:30.100Z,67.88
2018-12-20T17:39:06.580Z,69.15
2018-12-20T17:41:40.277Z,67.78
2018-12-20T17:44:14.068Z,67.42
2018-12-20T17:46:48.197Z,68.75
2018-12-20T17:49:30.306Z,68.22
2018-12-20T17:51:58.265Z,69.12
2018-12-20T17:54:32.179Z,70.43
2018-12-20T17:57:06.164Z,70.26
2018-12-20T17:59:40.042Z,69.18
2018-12-20T18:02:14.259Z,69.68
2018-12-20T18:04:48.603Z,69.36
2018-12-20T18:07:22.513Z,69.04
2018-12-20T18:09:56.252Z,69.08
2018-12-20T18:12:30.336Z,68.36
2018-12-20T18:15:04.845Z,67.43
2018-12-20T18:17:38.917Z,66.76
2018-12-20T18:20:13.069Z,67.28
2018-12-20T18:22:46.977Z,67.76
2018-12-20T18:25:20.884Z,68.17
2018-12-20T18:27:54.493Z,67.63
2018-12-20T18:30:28.392Z,67.33
2018-12-20T18:33:03.191Z,68.83
2018-12-20T18:35:37.847Z,69.42
2018-12-20T18:38:11.856Z,69.88
2018-12-20T18:40:45.773Z,69.09
2018-12-20T18:43:20.228Z,69.11
2018-12-20T18:45:54.088Z,69.57
2018-12-20T18:48:28.099Z,69.56
2018-12-20T18:51:02.006Z,70.21
2018-12-20T18:53:35.912Z,70.02
2018-12-20T18:56:09.831Z,69.37
2018-12-20T18:58:43.693Z,68.90
2018-12-20T19:01:17.634Z,69.40
2018-12-20T19:03:51.259Z,69.96
2018-12-20T19:06:25.144Z,69.74
2018-12-20T19:08:58.844Z,69.06
2018-12-20T19:11:32.752Z,68.71
2018-12-20T19:14:06.656Z,68.50
2018-12-20T19:16:40.668Z,69.66
2018-12-20T19:19:14.574Z,69.50
2018-12-20T19:21:48.431Z,69.42
2018-12-20T19:24:22.373Z,69.99
2018-12-20T19:26:56.486Z,70.17
2018-12-20T19:29:30.408Z,69.42
2018-12-20T19:32:04.427Z,69.65
2018-12-20T19:34:38.539Z,69.73
2018-12-20T19:37:12.236Z,69.04
2018-12-20T19:39:47.582Z,69.12
2018-12-20T19:42:21.686Z,69.02
2018-12-20T19:44:56.685Z,68.43
2018-12-20T19:47:30.941Z,68.84
2018-12-20T19:50:06.952Z,68.49
2018-12-20T19:52:40.697Z,68.31
2018-12-20T19:55:15.530Z,67.40
2018-12-20T19:57:49.946Z,68.14
2018-12-20T20:00:23.849Z,68.26
2018-12-20T20:02:57.600Z,69.03
2018-12-20T20:05:31.562Z,69.45
2018-12-20T20:08:05.675Z,69.19
2018-12-20T20:10:39.374Z,69.01
2018-12-20T20:13:19.239Z,69.49
2018-12-20T20:15:49.448Z,67.66
2018-12-20T20:18:23.249Z,67.66
2018-12-20T20:20:57.156Z,69.15
2018-12-20T20:23:32.047Z,69.05
2018-12-20T20:26:07.223Z,68.24
2018-12-20T20:28:41.131Z,69.07
2018-12-20T20:31:14.964Z,69.41
2018-12-20T20:33:48.843Z,70.39
2018-12-20T20:36:22.853Z,71.13
2018-12-20T20:39:01.913Z,72.15
2018-12-20T20:41:32.578Z,71.61
2018-12-20T20:44:06.728Z,70.87
2018-12-20T20:46:40.721Z,71.03
2018-12-20T20:49:14.744Z,71.22
2018-12-20T20:51:48.755Z,70.44
2018-12-20T20:54:24.306Z,70.92
2018-12-20T20:56:58.153Z,70.63
2018-12-20T20:59:32.011Z,70.78
2018-12-20T21:02:06.124Z,70.14
2018-12-20T21:04:39.993Z,70.13
2018-12-20T21:07:14.143Z,70.10
2018-12-20T21:09:47.950Z,69.75
2018-12-20T21:12:23.030Z,70.42
2018-12-20T21:14:57.101Z,69.30
2018-12-20T21:17:31.001Z,68.42
2018-12-20T21:20:06.764Z,69.09
2018-12-20T21:22:40.661Z,68.82
2018-12-20T21:25:15.205Z,68.64
2018-12-20T21:27:49.222Z,69.10
2018-12-20T21:30:23.145Z,68.67
2018-12-20T21:32:57.079Z,67.58
2018-12-20T21:35:31.099Z,68.43
2018-12-20T21:38:05.241Z,67.83
2018-12-20T21:40:40.178Z,69.42
2018-12-20T21:43:14.145Z,69.65
2018-12-20T21:45:48.160Z,68.46
2018-12-20T21:48:22.190Z,68.78
2018-12-20T21:50:55.942Z,69.26
2018-12-20T21:53:30.004Z,69.75
2018-12-20T21:56:03.810Z,70.84
2018-12-20T21:58:37.694Z,71.22
2018-12-20T22:01:11.521Z,70.10
2018-12-20T22:03:45.330Z,70.29
2018-12-20T22:06:19.963Z,71.14
2018-12-20T22:08:53.823Z,70.52
2018-12-20T22:11:27.839Z,70.46
2018-12-20T22:14:01.979Z,70.51
2018-12-20T22:16:35.743Z,70.13
2018-12-20T22:19:09.896Z,69.97
2018-12-20T22:21:45.033Z,69.91
2018-12-20T22:24:18.877Z,70.36
2018-12-20T22:26:52.745Z,70.15
2018-12-20T22:29:27.060Z,70.56
2018-12-20T22:32:00.892Z,70.75
2018-12-20T22:34:34.978Z,70.50
2018-12-20T22:37:08.885Z,69.87
2018-12-20T22:39:42.896Z,70.11
2018-12-20T22:42:16.683Z,70.80
2018-12-20T22:44:50.713Z,70.73
2018-12-20T22:47:24.702Z,69.49
2018-12-20T22:49:58.732Z,69.98
2018-12-20T22:52:32.609Z,71.22
2018-12-20T22:55:06.749Z,70.19
2018-12-20T22:57:40.860Z,69.22
2018-12-20T23:00:15.056Z,70.51
2018-12-20T23:02:49.188Z,72.84
2018-12-20T23:05:23.197Z,72.34
2018-12-20T23:07:57.001Z,72.88
2018-12-20T23:10:30.909Z,71.71
2018-12-20T23:13:04.758Z,71.24
2018-12-20T23:15:38.775Z,72.27
2018-12-20T23:18:12.835Z,72.10
2018-12-20T23:20:46.742Z,71.91
2018-12-20T23:23:20.548Z,71.58
2018-12-20T23:25:54.608Z,71.15
2018-12-20T23:28:28.569Z,72.10
2018-12-20T23:31:02.681Z,72.94
2018-12-20T23:33:36.588Z,73.10
2018-12-20T23:36:10.494Z,72.37
2018-12-20T23:38:44.400Z,72.39
2018-12-20T23:41:18.111Z,72.93
2018-12-20T23:43:52.114Z,72.26
2018-12-20T23:46:26.123Z,71.72
2018-12-20T23:49:00.034Z,72.60
2018-12-20T23:51:33.937Z,73.12
2018-12-20T23:54:07.899Z,73.24
2018-12-20T23:56:41.957Z,74.57
2018-12-20T23:59:15.967Z,73.82
